createdAt,value
2022-10-17T00:01:01.011Z,4.18
2022-10-17T00:03:29.837Z,4.38
2022-10-17T00:05:58.456Z,4.20
2022-10-17T00:08:25.891Z,4.30
2022-10-17T00:11:00.425Z,4.72
2022-10-17T00:13:29.004Z,4.25
2022-10-17T00:15:56.733Z,3.67
2022-10-17T00:18:24.140Z,4.50
2022-10-17T00:20:52.810Z,4.18
2022-10-17T00:23:21.352Z,3.45
2022-10-17T00:25:57.678Z,2.97
2022-10-17T00:28:24.991Z,3.10
2022-10-17T00:31:00.327Z,3.35
2022-10-17T00:33:28.821Z,3.20
2022-10-17T00:36:09.772Z,3.45
2022-10-17T00:38:37.631Z,3.10
2022-10-17T00:41:05.755Z,3.08
2022-10-17T00:43:56.296Z,3.45
2022-10-17T00:48:57.780Z,2.88
2022-10-17T00:51:34.284Z,2.72
2022-10-17T00:54:04.056Z,2.70
2022-10-17T00:56:32.079Z,2.75
2022-10-17T00:59:00.136Z,3.10
2022-10-17T01:01:30.567Z,3.13
2022-10-17T01:04:07.338Z,3.00
2022-10-17T01:06:34.613Z,3.60
2022-10-17T01:09:02.036Z,3.50
2022-10-17T01:11:46.581Z,3.47
2022-10-17T01:14:34.302Z,3.65
2022-10-17T01:17:12.748Z,4.28
2022-10-17T01:20:24.691Z,3.05
2022-10-17T01:22:52.851Z,3.47
2022-10-17T01:25:57.916Z,4.47
2022-10-17T01:29:13.684Z,4.15
2022-10-17T01:32:00.606Z,3.08
2022-10-17T01:34:42.438Z,4.38
2022-10-17T01:37:32.505Z,3.72
2022-10-17T01:40:19.091Z,3.90
2022-10-17T01:42:59.888Z,3.67
2022-10-17T01:45:35.819Z,3.83
2022-10-17T01:48:11.609Z,4.05
2022-10-17T01:50:46.507Z,4.75
2022-10-17T01:53:34.063Z,5.10
2022-10-17T01:56:05.522Z,4.10
2022-10-17T01:58:37.997Z,4.20
2022-10-17T02:01:08.098Z,4.65
2022-10-17T02:03:36.505Z,5.45
2022-10-17T02:06:11.013Z,5.53
2022-10-17T02:08:46.920Z,5.03
2022-10-17T02:11:23.710Z,5.10
2022-10-17T02:14:22.923Z,4.63
2022-10-17T02:16:58.280Z,4.68
2022-10-17T02:19:37.080Z,5.03
2022-10-17T02:24:40.080Z,5.65
2022-10-17T02:27:45.330Z,5.05
2022-10-17T02:30:32.756Z,5.55
2022-10-17T02:33:28.267Z,5.75
2022-10-17T02:36:01.712Z,5.63
2022-10-17T02:38:30.750Z,5.72
2022-10-17T02:40:59.122Z,5.65
2022-10-17T02:43:28.229Z,5.28
2022-10-17T02:45:57.113Z,5.75
2022-10-17T02:48:39.326Z,6.03
2022-10-17T02:51:29.257Z,5.55
2022-10-17T02:54:13.147Z,6.00
2022-10-17T02:56:50.997Z,6.00
2022-10-17T02:59:23.116Z,6.30
2022-10-17T03:01:51.680Z,6.38
2022-10-17T03:04:35.002Z,6.22
2022-10-17T03:07:04.699Z,6.15
2022-10-17T03:09:34.658Z,6.57
2022-10-17T03:12:02.229Z,6.22
2022-10-17T03:14:30.190Z,6.97
2022-10-17T03:17:00.034Z,7.47
2022-10-17T03:19:27.445Z,7.55
2022-10-17T03:21:54.908Z,7.78
2022-10-17T03:24:22.387Z,6.70
2022-10-17T03:26:49.580Z,8.32
2022-10-17T03:29:17.592Z,8.45
2022-10-17T03:31:47.562Z,8.20
2022-10-17T03:34:19.160Z,8.43
2022-10-17T03:39:25.757Z,8.25
2022-10-17T03:41:57.893Z,8.82
2022-10-17T03:44:25.156Z,9.38
2022-10-17T03:46:58.370Z,9.80
2022-10-17T03:49:29.024Z,9.90
2022-10-17T03:51:56.297Z,10.32
2022-10-17T03:54:25.235Z,10.25
2022-10-17T03:56:52.847Z,10.40
2022-10-17T03:59:23.405Z,11.75
2022-10-17T04:02:02.497Z,12.73
2022-10-17T04:04:35.390Z,11.85
2022-10-17T04:07:05.793Z,11.82
2022-10-17T04:09:36.329Z,12.32
2022-10-17T04:14:38.482Z,10.82
2022-10-17T04:17:12.694Z,10.68
2022-10-17T04:19:44.642Z,11.85
2022-10-17T04:22:19.470Z,12.73
2022-10-17T04:24:47.385Z,12.77
2022-10-17T04:27:33.171Z,11.52
2022-10-17T04:30:00.753Z,12.35
2022-10-17T04:32:28.319Z,14.05
2022-10-17T04:35:07.508Z,11.35
2022-10-17T04:37:35.004Z,13.52
2022-10-17T04:40:09.189Z,12.35
2022-10-17T04:42:37.149Z,13.57
2022-10-17T04:45:06.756Z,13.77
2022-10-17T04:47:36.009Z,13.90
2022-10-17T04:50:04.721Z,14.13
2022-10-17T04:52:39.972Z,14.50
2022-10-17T04:55:09.858Z,14.63
2022-10-17T04:57:39.240Z,13.02
2022-10-17T05:00:16.909Z,15.05
2022-10-17T05:02:56.720Z,16.20
2022-10-17T05:05:24.616Z,15.45
2022-10-17T05:07:55.027Z,14.57
2022-10-17T05:10:28.548Z,14.95
2022-10-17T05:12:56.048Z,16.20
2022-10-17T05:15:26.920Z,16.20
2022-10-17T05:17:59.193Z,15.60
2022-10-17T05:20:29.654Z,15.52
2022-10-17T05:23:00.063Z,15.95
2022-10-17T05:25:34.410Z,15.77
2022-10-17T05:28:05.172Z,15.55
2022-10-17T05:30:36.865Z,16.52
2022-10-17T05:33:07.424Z,16.25
2022-10-17T05:35:35.276Z,16.55
2022-10-17T05:38:05.185Z,17.08
2022-10-17T05:40:35.167Z,15.32
2022-10-17T05:43:05.269Z,16.48
2022-10-17T05:45:33.035Z,16.45
2022-10-17T05:48:02.550Z,16.02
2022-10-17T05:50:30.616Z,16.35
2022-10-17T05:53:17.319Z,15.45
2022-10-17T05:56:00.025Z,15.93
2022-10-17T05:58:49.211Z,15.02
2022-10-17T06:01:39.157Z,16.40
2022-10-17T06:04:08.836Z,17.15
2022-10-17T06:06:41.767Z,16.60
2022-10-17T06:09:14.436Z,16.55
2022-10-17T06:11:46.645Z,17.85
2022-10-17T06:14:16.341Z,15.55
2022-10-17T06:17:03.530Z,16.27
2022-10-17T06:19:33.884Z,14.98
2022-10-17T06:22:02.564Z,15.77
2022-10-17T06:24:30.475Z,14.57
2022-10-17T06:26:58.142Z,15.07
2022-10-17T06:29:40.350Z,14.35
2022-10-17T06:32:11.273Z,13.95
2022-10-17T06:34:42.780Z,15.38
2022-10-17T06:37:16.533Z,14.38
2022-10-17T06:39:47.584Z,12.93
2022-10-17T06:42:19.088Z,14.13
2022-10-17T06:44:49.849Z,15.30
2022-10-17T06:47:37.757Z,16.42
2022-10-17T06:50:35.008Z,12.93
2022-10-17T06:53:22.955Z,12.77
2022-10-17T06:55:55.267Z,13.63
2022-10-17T06:58:53.492Z,12.48
2022-10-17T07:01:26.804Z,12.98
2022-10-17T07:04:17.933Z,15.20
2022-10-17T07:06:45.461Z,12.90
2022-10-17T07:09:19.399Z,12.57
2022-10-17T07:11:47.891Z,15.55
2022-10-17T07:14:18.740Z,16.13
2022-10-17T07:16:47.472Z,14.00
2022-10-17T07:19:21.220Z,12.93
2022-10-17T07:21:58.156Z,13.68
2022-10-17T07:24:28.801Z,14.00
2022-10-17T07:27:06.290Z,13.27
2022-10-17T07:29:34.104Z,14.50
2022-10-17T07:32:08.795Z,14.43
2022-10-17T07:34:39.227Z,14.02
2022-10-17T07:37:11.300Z,14.80
2022-10-17T07:39:41.689Z,12.52
2022-10-17T07:42:10.605Z,11.90
2022-10-17T07:44:40.671Z,12.07
2022-10-17T07:47:14.091Z,11.10
2022-10-17T07:49:44.110Z,10.95
2022-10-17T07:52:16.901Z,10.75
2022-10-17T07:54:44.453Z,12.75
2022-10-17T07:57:12.060Z,11.20
2022-10-17T07:59:39.962Z,10.70
2022-10-17T08:02:10.731Z,10.00
2022-10-17T08:04:41.503Z,10.80
2022-10-17T08:07:21.739Z,10.35
2022-10-17T08:09:50.519Z,10.40
2022-10-17T08:12:27.701Z,10.40
2022-10-17T08:14:55.280Z,9.03
2022-10-17T08:17:23.218Z,9.38
2022-10-17T08:19:54.997Z,9.85
2022-10-17T08:22:25.239Z,9.63
2022-10-17T08:24:52.894Z,9.23
2022-10-17T08:27:24.445Z,8.95
2022-10-17T08:29:54.851Z,9.85
2022-10-17T08:32:26.608Z,9.93
2022-10-17T08:34:59.478Z,9.20
2022-10-17T08:37:27.311Z,8.80
2022-10-17T08:39:55.010Z,9.05
2022-10-17T08:42:29.287Z,9.15
2022-10-17T08:45:16.745Z,8.45
2022-10-17T08:47:47.810Z,9.38
2022-10-17T08:50:24.221Z,9.38
2022-10-17T08:53:01.329Z,8.98
2022-10-17T08:55:49.306Z,9.07
2022-10-17T08:58:28.699Z,9.48
2022-10-17T09:01:01.296Z,10.07
2022-10-17T09:03:37.365Z,9.88
2022-10-17T09:06:11.666Z,10.05
2022-10-17T09:08:39.559Z,11.32
2022-10-17T09:11:38.953Z,10.55
2022-10-17T09:14:43.757Z,10.60
2022-10-17T09:17:50.642Z,10.82
2022-10-17T09:20:24.903Z,9.68
2022-10-17T09:22:58.795Z,10.90
2022-10-17T09:25:32.294Z,9.93
2022-10-17T09:28:11.094Z,10.80
2022-10-17T09:30:54.563Z,10.75
2022-10-17T09:33:52.948Z,11.35
2022-10-17T09:36:29.075Z,10.05
2022-10-17T09:39:06.215Z,10.48
2022-10-17T09:41:46.878Z,11.07
2022-10-17T09:44:36.289Z,9.90
2022-10-17T09:47:38.360Z,10.88
2022-10-17T09:50:25.856Z,10.93
2022-10-17T09:53:00.988Z,11.10
2022-10-17T09:55:45.836Z,10.75
2022-10-17T09:58:16.822Z,12.60
2022-10-17T10:00:47.750Z,12.30
2022-10-17T10:03:25.069Z,11.75
2022-10-17T10:06:08.069Z,11.38
2022-10-17T10:08:49.914Z,11.35
2022-10-17T10:11:20.614Z,11.18
2022-10-17T10:13:57.525Z,11.70
2022-10-17T10:16:32.509Z,12.27
2022-10-17T10:19:04.706Z,11.68
2022-10-17T10:21:37.550Z,10.82
2022-10-17T10:24:12.806Z,12.27
2022-10-17T10:26:45.642Z,11.52
2022-10-17T10:29:34.755Z,12.07
2022-10-17T10:32:23.971Z,12.70
2022-10-17T10:34:58.872Z,13.20
2022-10-17T10:37:35.791Z,11.35
2022-10-17T10:40:16.703Z,11.10
2022-10-17T10:42:55.717Z,11.65
2022-10-17T10:45:53.707Z,11.10
2022-10-17T10:48:35.499Z,10.67
2022-10-17T10:51:13.264Z,12.02
2022-10-17T10:54:21.791Z,11.82
2022-10-17T10:57:02.790Z,10.77
2022-10-17T11:00:00.881Z,11.73
2022-10-17T11:02:45.458Z,12.32
2022-10-17T11:05:28.240Z,11.10
2022-10-17T11:11:01.592Z,11.60
2022-10-17T11:13:43.136Z,9.68
2022-10-17T11:16:29.767Z,10.20
2022-10-17T11:19:17.336Z,10.68
2022-10-17T11:21:58.831Z,9.85
2022-10-17T11:25:20.114Z,10.38
2022-10-17T11:27:50.793Z,10.50
2022-10-17T11:30:18.271Z,10.45
2022-10-17T11:33:25.699Z,12.32
2022-10-17T11:39:58.552Z,12.07
2022-10-17T11:43:14.732Z,12.20
2022-10-17T11:46:03.031Z,11.50
2022-10-17T11:52:18.283Z,11.52
2022-10-17T11:55:00.035Z,10.57
2022-10-17T12:02:47.858Z,9.57
2022-10-17T12:05:46.598Z,9.30
2022-10-17T12:08:33.867Z,9.45
2022-10-17T12:11:18.261Z,8.45
2022-10-17T12:13:58.036Z,9.05
2022-10-17T12:16:34.135Z,9.02
2022-10-17T12:19:01.518Z,8.77
2022-10-17T12:21:49.377Z,8.55
2022-10-17T12:24:47.631Z,8.43
2022-10-17T12:27:56.303Z,7.30
2022-10-17T12:30:34.672Z,7.30
2022-10-17T12:33:18.006Z,7.20
2022-10-17T12:36:12.739Z,6.10
2022-10-17T12:38:40.213Z,5.45
2022-10-17T12:41:13.806Z,6.22
2022-10-17T12:44:16.657Z,6.60
2022-10-17T12:46:52.518Z,5.47
2022-10-17T12:49:45.757Z,6.18
2022-10-17T12:52:48.349Z,5.88
2022-10-17T12:55:24.747Z,7.13
2022-10-17T12:58:10.982Z,7.20
2022-10-17T13:01:11.719Z,6.75
2022-10-17T13:03:44.544Z,6.45
2022-10-17T13:06:32.136Z,7.47
2022-10-17T13:09:05.598Z,7.35
2022-10-17T13:11:36.501Z,6.20
2022-10-17T13:14:12.638Z,6.20
2022-10-17T13:17:03.093Z,5.90
2022-10-17T13:19:40.289Z,5.57
2022-10-17T13:22:16.929Z,5.72
2022-10-17T13:24:44.350Z,5.60
2022-10-17T13:27:30.282Z,5.70
2022-10-17T13:30:00.458Z,5.00
2022-10-17T13:32:36.709Z,5.25
2022-10-17T13:35:11.405Z,4.85
2022-10-17T13:37:45.221Z,4.68
2022-10-17T13:43:13.107Z,5.03
2022-10-17T13:45:49.257Z,4.43
2022-10-17T13:48:26.067Z,4.47
2022-10-17T13:51:03.050Z,4.75
2022-10-17T13:53:31.738Z,5.05
2022-10-17T13:56:26.308Z,4.80
2022-10-17T13:58:58.088Z,4.50
2022-10-17T14:01:28.968Z,5.00
2022-10-17T14:04:19.454Z,4.70
2022-10-17T14:06:49.630Z,4.53
2022-10-17T14:09:30.309Z,4.15
2022-10-17T14:12:13.074Z,3.97
2022-10-17T14:15:09.172Z,3.83
2022-10-17T14:17:34.796Z,3.85
2022-10-17T14:23:17.569Z,4.20
2022-10-17T14:25:41.130Z,4.45
2022-10-17T14:28:11.804Z,3.58
2022-10-17T14:30:58.341Z,3.97
2022-10-17T14:33:31.260Z,3.55
2022-10-17T14:36:05.985Z,3.45
2022-10-17T14:38:33.512Z,3.92
2022-10-17T14:41:41.895Z,4.35
2022-10-17T14:44:19.489Z,4.00
2022-10-17T14:46:50.913Z,4.03
2022-10-17T14:49:26.255Z,3.80
2022-10-17T14:52:23.643Z,4.03
2022-10-17T14:54:52.966Z,3.72
2022-10-17T14:57:24.873Z,3.42
2022-10-17T14:59:54.730Z,3.90
2022-10-17T15:02:24.747Z,3.85
2022-10-17T15:04:52.849Z,4.28
2022-10-17T15:07:24.480Z,3.83
2022-10-17T15:09:57.831Z,3.70
2022-10-17T15:12:26.165Z,4.10
2022-10-17T15:14:54.141Z,3.92
2022-10-17T15:17:25.983Z,3.95
2022-10-17T15:19:53.800Z,4.20
2022-10-17T15:22:21.697Z,3.88
2022-10-17T15:24:49.320Z,3.58
2022-10-17T15:27:22.537Z,3.40
2022-10-17T15:29:51.778Z,3.78
2022-10-17T15:32:20.201Z,3.92
2022-10-17T15:34:50.462Z,3.35
2022-10-17T15:37:23.651Z,3.90
2022-10-17T15:39:56.845Z,3.85
2022-10-17T15:42:29.727Z,3.95
2022-10-17T15:44:58.450Z,2.78
2022-10-17T15:47:31.506Z,3.47
2022-10-17T15:50:00.499Z,4.05
2022-10-17T15:52:28.645Z,3.78
2022-10-17T15:54:58.412Z,3.80
2022-10-17T15:57:32.295Z,3.58
2022-10-17T16:00:01.018Z,3.75
2022-10-17T16:02:28.668Z,3.45
2022-10-17T16:04:56.209Z,3.72
2022-10-17T16:07:23.481Z,4.18
2022-10-17T16:09:51.793Z,4.15
2022-10-17T16:12:30.481Z,4.05
2022-10-17T16:14:58.705Z,3.97
2022-10-17T16:17:27.324Z,3.30
2022-10-17T16:19:56.065Z,3.50
2022-10-17T16:22:38.338Z,3.47
2022-10-17T16:25:10.680Z,3.40
2022-10-17T16:27:40.234Z,3.80
2022-10-17T16:30:10.875Z,3.85
2022-10-17T16:32:38.233Z,3.30
2022-10-17T16:35:06.650Z,4.13
2022-10-17T16:37:35.963Z,3.47
2022-10-17T16:40:04.769Z,3.72
2022-10-17T16:42:33.149Z,3.90
2022-10-17T16:45:00.639Z,3.85
2022-10-17T16:47:28.201Z,4.18
2022-10-17T16:49:56.209Z,3.92
2022-10-17T16:52:26.023Z,3.65
2022-10-17T16:54:53.654Z,3.70
2022-10-17T16:57:22.038Z,3.90
2022-10-17T16:59:49.434Z,3.63
2022-10-17T17:02:21.413Z,3.60
2022-10-17T17:04:49.027Z,4.00
2022-10-17T17:07:19.572Z,3.50
2022-10-17T17:09:48.235Z,3.72
2022-10-17T17:12:16.127Z,3.85
2022-10-17T17:14:43.866Z,3.88
2022-10-17T17:17:24.433Z,3.65
2022-10-17T17:20:02.098Z,3.33
2022-10-17T17:22:29.689Z,3.65
2022-10-17T17:24:56.835Z,3.08
2022-10-17T17:27:25.221Z,4.15
2022-10-17T17:29:52.611Z,4.10
2022-10-17T17:32:19.833Z,4.03
2022-10-17T17:34:47.272Z,3.72
2022-10-17T17:37:15.006Z,4.93
2022-10-17T17:39:43.036Z,3.78
2022-10-17T17:42:10.458Z,4.05
2022-10-17T17:44:42.742Z,4.20
2022-10-17T17:47:10.052Z,3.55
2022-10-17T17:49:40.631Z,4.22
2022-10-17T17:52:09.013Z,4.00
2022-10-17T17:54:40.001Z,4.53
2022-10-17T17:57:08.496Z,4.22
2022-10-17T17:59:46.161Z,4.30
2022-10-17T18:02:16.975Z,4.00
2022-10-17T18:04:45.235Z,4.30
2022-10-17T18:07:12.501Z,4.55
2022-10-17T18:09:42.764Z,4.93
2022-10-17T18:12:10.062Z,3.50
2022-10-17T18:14:37.912Z,4.35
2022-10-17T18:17:05.811Z,4.10
2022-10-17T18:19:37.574Z,4.22
2022-10-17T18:22:05.087Z,6.10
2022-10-17T18:24:32.190Z,4.60
2022-10-17T18:27:00.004Z,5.10
2022-10-17T18:29:28.056Z,4.80
2022-10-17T18:31:55.740Z,5.18
2022-10-17T18:34:22.993Z,4.38
2022-10-17T18:36:50.909Z,5.65
2022-10-17T18:39:18.659Z,4.78
2022-10-17T18:41:46.385Z,5.28
2022-10-17T18:44:13.766Z,5.30
2022-10-17T18:46:42.697Z,5.20
2022-10-17T18:49:11.966Z,4.60
2022-10-17T18:51:41.458Z,4.38
2022-10-17T18:54:14.579Z,3.80
2022-10-17T18:56:41.832Z,4.38
2022-10-17T18:59:09.851Z,4.90
2022-10-17T19:01:40.486Z,5.63
2022-10-17T19:04:09.625Z,5.55
2022-10-17T19:06:38.885Z,5.35
2022-10-17T19:09:08.981Z,3.78
2022-10-17T19:11:37.912Z,4.05
2022-10-17T19:14:13.215Z,3.88
2022-10-17T19:16:46.676Z,5.15
2022-10-17T19:19:23.273Z,4.55
2022-10-17T19:21:52.937Z,4.55
2022-10-17T19:24:25.559Z,4.85
2022-10-17T19:29:23.879Z,4.68
2022-10-17T19:31:51.556Z,5.97
2022-10-17T19:34:19.016Z,6.25
2022-10-17T19:36:46.762Z,6.50
2022-10-17T19:39:18.464Z,6.00
2022-10-17T19:41:52.386Z,7.25
2022-10-17T19:44:19.878Z,5.78
2022-10-17T19:46:49.195Z,6.63
2022-10-17T19:49:17.509Z,7.00
2022-10-17T19:51:45.277Z,6.43
2022-10-17T19:54:13.061Z,6.05
2022-10-17T19:56:43.493Z,6.70
2022-10-17T19:59:13.836Z,6.20
2022-10-17T20:01:41.785Z,6.65
2022-10-17T20:04:11.224Z,6.40
2022-10-17T20:06:40.209Z,6.75
2022-10-17T20:09:09.889Z,6.57
2022-10-17T20:11:45.779Z,6.47
2022-10-17T20:14:15.620Z,7.00
2022-10-17T20:16:45.257Z,6.93
2022-10-17T20:19:14.039Z,6.22
2022-10-17T20:21:43.456Z,6.07
2022-10-17T20:24:15.153Z,6.10
2022-10-17T20:26:42.894Z,5.57
2022-10-17T20:29:16.848Z,6.93
2022-10-17T20:31:46.123Z,5.70
2022-10-17T20:34:15.890Z,5.93
2022-10-17T20:36:44.125Z,5.78
2022-10-17T20:39:19.344Z,6.88
2022-10-17T20:41:46.981Z,6.53
2022-10-17T20:44:17.350Z,7.32
2022-10-17T20:47:00.684Z,6.00
2022-10-17T20:49:29.752Z,6.63
2022-10-17T20:51:57.744Z,6.75
2022-10-17T20:54:29.243Z,6.53
2022-10-17T20:57:01.083Z,6.93
2022-10-17T20:59:31.631Z,7.90
2022-10-17T21:02:01.897Z,7.22
2022-10-17T21:04:45.909Z,7.53
2022-10-17T21:07:14.456Z,7.20
2022-10-17T21:09:42.499Z,6.63
2022-10-17T21:12:21.600Z,7.85
2022-10-17T21:14:59.344Z,8.05
2022-10-17T21:17:26.924Z,7.28
2022-10-17T21:19:54.169Z,7.78
2022-10-17T21:22:21.795Z,6.05
2022-10-17T21:24:51.549Z,6.50
2022-10-17T21:27:21.115Z,6.85
2022-10-17T21:29:48.412Z,7.93
2022-10-17T21:32:51.228Z,6.93
2022-10-17T21:36:11.178Z,6.40
2022-10-17T21:38:39.666Z,6.63
2022-10-17T21:41:11.771Z,6.93
2022-10-17T21:43:39.109Z,6.25
2022-10-17T21:46:14.759Z,5.97
2022-10-17T21:48:46.377Z,7.07
2022-10-17T21:51:17.368Z,5.93
2022-10-17T21:53:47.940Z,6.65
2022-10-17T21:56:21.322Z,6.43
2022-10-17T21:58:52.159Z,6.28
2022-10-17T22:01:30.842Z,5.47
2022-10-17T22:04:01.203Z,7.18
2022-10-17T22:06:39.604Z,6.30
2022-10-17T22:09:17.602Z,6.25
2022-10-17T22:11:50.184Z,5.90
2022-10-17T22:14:22.805Z,6.75
2022-10-17T22:16:50.982Z,5.43
2022-10-17T22:19:23.465Z,6.45
2022-10-17T22:21:51.885Z,5.53
2022-10-17T22:24:47.765Z,6.18
2022-10-17T22:27:16.825Z,6.50
2022-10-17T22:29:44.016Z,5.28
2022-10-17T22:32:16.331Z,5.70
2022-10-17T22:34:48.510Z,5.45
2022-10-17T22:37:17.114Z,5.78
2022-10-17T22:40:13.495Z,4.82
2022-10-17T22:42:44.320Z,4.50
2022-10-17T22:45:11.749Z,5.53
2022-10-17T22:47:39.784Z,6.00
2022-10-17T22:50:07.581Z,6.18
2022-10-17T22:52:34.805Z,6.32
2022-10-17T22:55:04.888Z,5.80
2022-10-17T22:57:34.443Z,6.93
2022-10-17T23:00:03.482Z,6.47
2022-10-17T23:02:31.137Z,7.28
2022-10-17T23:05:03.451Z,7.03
2022-10-17T23:07:30.862Z,6.75
2022-10-17T23:09:58.094Z,6.95
2022-10-17T23:12:29.070Z,7.47
2022-10-17T23:14:59.207Z,6.10
2022-10-17T23:17:30.040Z,6.18
2022-10-17T23:19:57.784Z,6.03
2022-10-17T23:22:25.050Z,5.82
2022-10-17T23:24:57.746Z,6.55
2022-10-17T23:29:56.666Z,7.53
2022-10-17T23:32:24.037Z,7.50
2022-10-17T23:34:53.826Z,6.38
2022-10-17T23:37:21.101Z,6.97
2022-10-17T23:39:52.736Z,8.25
2022-10-17T23:42:26.377Z,7.03
2022-10-17T23:44:53.773Z,7.22
2022-10-17T23:47:23.607Z,8.75
2022-10-17T23:49:54.146Z,7.05
2022-10-17T23:52:21.338Z,7.95
2022-10-17T23:54:55.392Z,8.32
2022-10-17T23:57:28.478Z,7.90
2022-10-17T23:59:56.105Z,7.68
